createdAt,value
2024-01-24T00:00:04.106Z, 43.00
2024-01-24T00:01:04.180Z, 43.01
2024-01-24T00:02:04.112Z, 43.01
2024-01-24T00:03:04.210Z, 42.96
2024-01-24T00:04:04.394Z, 43.00
2024-01-24T00:05:04.188Z, 43.00
2024-01-24T00:06:04.249Z, 42.93
2024-01-24T00:07:04.244Z, 42.94
2024-01-24T00:08:04.223Z, 42.90
2024-01-24T00:09:04.244Z, 42.83
2024-01-24T00:10:04.245Z, 42.78
2024-01-24T00:11:04.237Z, 42.78
2024-01-24T00:12:04.280Z, 42.74
2024-01-24T00:13:04.359Z, 42.73
2024-01-24T00:14:04.325Z, 42.68
2024-01-24T00:15:04.376Z, 42.64
2024-01-24T00:16:04.340Z, 42.55
2024-01-24T00:17:04.336Z, 42.56
2024-01-24T00:18:04.400Z, 42.58
2024-01-24T00:19:04.404Z, 42.59
2024-01-24T00:20:04.354Z, 42.52
2024-01-24T00:21:04.348Z, 42.50
2024-01-24T00:22:04.379Z, 42.46
2024-01-24T00:23:04.377Z, 42.47
2024-01-24T00:24:04.374Z, 42.38
2024-01-24T00:25:04.402Z, 42.39
2024-01-24T00:26:04.450Z, 42.39
2024-01-24T00:27:04.430Z, 42.35
2024-01-24T00:28:04.520Z, 42.24
2024-01-24T00:29:04.529Z, 42.25
2024-01-24T00:30:04.507Z, 42.26
2024-01-24T00:31:04.531Z, 42.22
2024-01-24T00:32:04.518Z, 42.16
2024-01-24T00:33:04.530Z, 42.16
2024-01-24T00:34:04.646Z, 42.21
2024-01-24T00:35:04.526Z, 42.13
2024-01-24T00:36:04.536Z, 42.04
2024-01-24T00:37:04.658Z, 42.00
2024-01-24T00:38:04.600Z, 41.99
2024-01-24T00:39:04.605Z, 42.01
2024-01-24T00:40:04.607Z, 42.03
2024-01-24T00:41:04.611Z, 41.92
2024-01-24T00:42:04.651Z, 41.85
2024-01-24T00:43:04.650Z, 41.83
2024-01-24T00:44:04.737Z, 41.84
2024-01-24T00:45:04.718Z, 41.85
2024-01-24T00:46:04.706Z, 41.83
2024-01-24T00:47:04.702Z, 41.86
2024-01-24T00:48:04.782Z, 41.77
2024-01-24T00:49:04.883Z, 41.73
2024-01-24T00:50:04.703Z, 41.80
2024-01-24T00:51:04.713Z, 41.76
2024-01-24T00:52:04.732Z, 41.69
2024-01-24T00:53:04.740Z, 41.68
2024-01-24T00:54:04.781Z, 41.60
2024-01-24T00:55:04.765Z, 41.60
2024-01-24T00:56:04.776Z, 41.57
2024-01-24T00:57:04.800Z, 41.53
2024-01-24T00:58:04.825Z, 41.52
2024-01-24T00:59:04.907Z, 41.45
2024-01-24T01:00:04.873Z, 41.46
2024-01-24T01:01:05.030Z, 41.38
2024-01-24T01:02:04.890Z, 41.37
2024-01-24T01:03:04.931Z, 41.39
2024-01-24T01:04:05.080Z, 41.39
2024-01-24T01:05:04.954Z, 41.38
2024-01-24T01:06:05.005Z, 41.34
2024-01-24T01:07:04.986Z, 41.31
2024-01-24T01:08:04.971Z, 41.31
2024-01-24T01:09:05.032Z, 41.27
2024-01-24T01:10:04.990Z, 41.26
2024-01-24T01:11:04.986Z, 41.23
2024-01-24T01:12:04.989Z, 41.12
2024-01-24T01:13:05.069Z, 41.11
2024-01-24T01:14:05.198Z, 41.15
2024-01-24T01:15:05.115Z, 41.11
2024-01-24T01:16:05.093Z, 41.09
2024-01-24T01:17:05.121Z, 40.99
2024-01-24T01:18:05.212Z, 41.00
2024-01-24T01:19:05.313Z, 40.93
2024-01-24T01:20:05.118Z, 40.98
2024-01-24T01:21:05.092Z, 40.93
2024-01-24T01:22:05.265Z, 40.91
2024-01-24T01:23:05.154Z, 40.85
2024-01-24T01:24:05.159Z, 40.84
2024-01-24T01:25:05.151Z, 40.85
2024-01-24T01:26:05.154Z, 40.90
2024-01-24T01:27:05.247Z, 40.82
2024-01-24T01:28:05.221Z, 40.81
2024-01-24T01:29:05.280Z, 40.81
2024-01-24T01:30:05.289Z, 40.74
2024-01-24T01:31:05.295Z, 40.70
2024-01-24T01:32:05.361Z, 40.67
2024-01-24T01:33:05.380Z, 40.68
2024-01-24T01:34:05.408Z, 40.59
2024-01-24T01:35:05.354Z, 40.62
2024-01-24T01:36:13.913Z, 40.59
2024-01-24T01:37:05.384Z, 40.51
2024-01-24T01:38:05.335Z, 40.46
2024-01-24T01:39:05.332Z, 40.48
2024-01-24T01:40:05.387Z, 40.46
2024-01-24T01:41:05.341Z, 40.38
2024-01-24T01:42:05.410Z, 40.38
2024-01-24T01:43:05.415Z, 40.42
2024-01-24T01:44:05.487Z, 40.36
2024-01-24T01:45:05.435Z, 40.40
2024-01-24T01:46:05.465Z, 40.32
2024-01-24T01:47:05.462Z, 40.26
2024-01-24T01:48:05.505Z, 40.30
2024-01-24T01:49:05.512Z, 40.33
2024-01-24T01:50:05.487Z, 40.24
2024-01-24T01:51:05.530Z, 40.21
2024-01-24T01:52:05.539Z, 40.24
2024-01-24T01:53:05.590Z, 40.19
2024-01-24T01:54:05.541Z, 40.15
2024-01-24T01:55:05.548Z, 40.09
2024-01-24T01:56:05.558Z, 40.13
2024-01-24T01:57:05.534Z, 40.03
2024-01-24T01:58:05.619Z, 40.01
2024-01-24T01:59:05.587Z, 39.97
2024-01-24T02:00:05.648Z, 39.94
2024-01-24T02:01:05.774Z, 39.95
2024-01-24T02:02:05.630Z, 39.92
2024-01-24T02:03:05.697Z, 39.90
2024-01-24T02:04:05.675Z, 39.91
2024-01-24T02:05:05.679Z, 39.90
2024-01-24T02:06:05.788Z, 39.89
2024-01-24T02:07:05.765Z, 39.85
2024-01-24T02:08:05.661Z, 39.79
2024-01-24T02:09:05.669Z, 39.82
2024-01-24T02:10:05.734Z, 39.86
2024-01-24T02:11:05.729Z, 39.82
2024-01-24T02:12:05.783Z, 39.72
2024-01-24T02:13:05.746Z, 39.71
2024-01-24T02:14:05.749Z, 39.71
2024-01-24T02:15:05.809Z, 39.69
2024-01-24T02:16:05.821Z, 39.66
2024-01-24T02:17:05.900Z, 39.66
2024-01-24T02:18:05.904Z, 39.63
2024-01-24T02:19:05.939Z, 39.62
2024-01-24T02:20:05.876Z, 39.60
2024-01-24T02:21:05.840Z, 39.53
2024-01-24T02:22:05.841Z, 39.49
2024-01-24T02:23:05.858Z, 39.55
2024-01-24T02:24:05.896Z, 39.54
2024-01-24T02:25:05.877Z, 39.51
2024-01-24T02:26:05.937Z, 39.55
2024-01-24T02:27:05.911Z, 39.48
2024-01-24T02:28:06.080Z, 39.47
2024-01-24T02:29:05.975Z, 39.43
2024-01-24T02:30:05.971Z, 39.42
2024-01-24T02:31:06.017Z, 39.39
2024-01-24T02:32:05.970Z, 39.40
2024-01-24T02:33:06.122Z, 39.33
2024-01-24T02:34:06.177Z, 39.40
2024-01-24T02:35:06.022Z, 39.39
2024-01-24T02:36:06.017Z, 39.25
2024-01-24T02:37:06.010Z, 39.27
2024-01-24T02:38:06.040Z, 39.23
2024-01-24T02:39:06.036Z, 39.21
2024-01-24T02:40:06.140Z, 39.16
2024-01-24T02:41:06.102Z, 39.15
2024-01-24T02:42:06.157Z, 39.12
2024-01-24T02:43:06.163Z, 39.17
2024-01-24T02:44:06.130Z, 39.12
2024-01-24T02:45:06.126Z, 39.01
2024-01-24T02:46:06.137Z, 39.01
2024-01-24T02:47:06.233Z, 38.98
2024-01-24T02:48:06.306Z, 38.96
2024-01-24T02:49:06.309Z, 39.01
2024-01-24T02:50:06.192Z, 39.00
2024-01-24T02:51:06.261Z, 38.95
2024-01-24T02:52:06.282Z, 38.86
2024-01-24T02:53:06.245Z, 38.91
2024-01-24T02:54:06.272Z, 38.93
2024-01-24T02:55:06.256Z, 38.87
2024-01-24T02:56:06.324Z, 38.90
2024-01-24T02:57:06.314Z, 38.93
2024-01-24T02:58:06.288Z, 38.93
2024-01-24T02:59:06.298Z, 38.82
2024-01-24T03:00:06.292Z, 38.87
2024-01-24T03:01:06.450Z, 38.84
2024-01-24T03:02:06.325Z, 38.82
2024-01-24T03:03:06.334Z, 38.77
2024-01-24T03:04:06.434Z, 38.70
2024-01-24T03:05:06.369Z, 38.69
2024-01-24T03:06:06.400Z, 38.72
2024-01-24T03:07:06.542Z, 38.72
2024-01-24T03:08:06.410Z, 38.64
2024-01-24T03:09:06.424Z, 38.61
2024-01-24T03:10:06.512Z, 38.60
2024-01-24T03:11:06.477Z, 38.56
2024-01-24T03:12:06.524Z, 38.51
2024-01-24T03:13:06.547Z, 38.51
2024-01-24T03:14:06.548Z, 38.47
2024-01-24T03:15:06.531Z, 38.45
2024-01-24T03:16:06.564Z, 38.41
2024-01-24T03:17:06.534Z, 38.37
2024-01-24T03:18:06.637Z, 38.38
2024-01-24T03:19:06.687Z, 38.39
2024-01-24T03:20:06.559Z, 38.37
2024-01-24T03:21:06.617Z, 38.38
2024-01-24T03:22:06.607Z, 38.40
2024-01-24T03:23:06.661Z, 38.41
2024-01-24T03:24:06.637Z, 38.34
2024-01-24T03:25:06.652Z, 38.32
2024-01-24T03:26:06.629Z, 38.32
2024-01-24T03:27:06.684Z, 38.37
2024-01-24T03:28:06.662Z, 38.26
2024-01-24T03:29:06.659Z, 38.24
2024-01-24T03:30:06.731Z, 38.24
2024-01-24T03:31:06.684Z, 38.23
2024-01-24T03:32:06.725Z, 38.16
2024-01-24T03:33:06.805Z, 38.17
2024-01-24T03:34:06.964Z, 38.15
2024-01-24T03:35:06.850Z, 38.13
2024-01-24T03:36:06.780Z, 38.09
2024-01-24T03:37:06.783Z, 38.13
2024-01-24T03:38:06.785Z, 38.10
2024-01-24T03:39:06.782Z, 38.00
2024-01-24T03:40:06.802Z, 38.02
2024-01-24T03:41:06.821Z, 38.02
2024-01-24T03:42:06.827Z, 38.05
2024-01-24T03:43:06.899Z, 38.05
2024-01-24T03:44:06.941Z, 37.97
2024-01-24T03:45:06.871Z, 37.91
2024-01-24T03:46:06.875Z, 37.94
2024-01-24T03:47:06.874Z, 37.93
2024-01-24T03:48:07.040Z, 37.87
2024-01-24T03:49:07.024Z, 37.91
2024-01-24T03:50:07.004Z, 37.92
2024-01-24T03:51:06.957Z, 37.82
2024-01-24T03:52:06.960Z, 37.87
2024-01-24T03:53:06.955Z, 37.91
2024-01-24T03:54:06.972Z, 37.90
2024-01-24T03:55:06.982Z, 37.76
2024-01-24T03:56:06.988Z, 37.76
2024-01-24T03:57:07.114Z, 37.72
2024-01-24T03:58:07.051Z, 37.73
2024-01-24T03:59:07.127Z, 37.73
2024-01-24T04:00:07.105Z, 37.69
2024-01-24T04:01:07.224Z, 37.66
2024-01-24T04:02:09.230Z, 37.68
2024-01-24T04:03:07.173Z, 37.66
2024-01-24T04:04:07.264Z, 37.57
2024-01-24T04:05:07.163Z, 37.58
2024-01-24T04:06:07.197Z, 37.70
2024-01-24T04:07:07.305Z, 37.66
2024-01-24T04:08:07.220Z, 37.54
2024-01-24T04:09:07.184Z, 37.59
2024-01-24T04:10:07.240Z, 37.51
2024-01-24T04:11:07.224Z, 37.48
2024-01-24T04:12:07.223Z, 37.44
2024-01-24T04:13:07.226Z, 37.48
2024-01-24T04:14:07.229Z, 37.45
2024-01-24T04:15:07.280Z, 37.42
2024-01-24T04:16:07.311Z, 37.40
2024-01-24T04:17:07.297Z, 37.43
2024-01-24T04:18:07.319Z, 37.42
2024-01-24T04:19:07.352Z, 37.41
2024-01-24T04:20:07.362Z, 37.40
2024-01-24T04:21:07.329Z, 37.38
2024-01-24T04:22:07.328Z, 37.36
2024-01-24T04:23:07.341Z, 37.33
2024-01-24T04:24:07.407Z, 37.26
2024-01-24T04:25:07.403Z, 37.28
2024-01-24T04:26:07.447Z, 37.27
2024-01-24T04:27:07.433Z, 37.27
2024-01-24T04:28:07.438Z, 37.22
2024-01-24T04:29:10.726Z, 37.16
2024-01-24T04:30:07.456Z, 37.19
2024-01-24T04:31:07.593Z, 37.34
2024-01-24T04:32:07.485Z, 38.92
2024-01-24T04:33:07.612Z, 39.41
2024-01-24T04:34:07.664Z, 39.45
2024-01-24T04:35:07.558Z, 39.33
2024-01-24T04:36:07.516Z, 39.10
2024-01-24T04:37:07.513Z, 38.63
2024-01-24T04:38:07.525Z, 37.92
2024-01-24T04:39:07.534Z, 36.96
2024-01-24T04:40:07.593Z, 35.53
2024-01-24T04:41:07.560Z, 32.76
2024-01-24T04:42:12.386Z, 29.59
2024-01-24T04:43:07.641Z, 26.32
2024-01-24T04:44:07.661Z, 26.42
2024-01-24T04:45:07.709Z, 30.65
2024-01-24T04:46:07.717Z, 34.19
2024-01-24T04:47:07.645Z, 36.48
2024-01-24T04:48:07.743Z, 38.00
2024-01-24T04:49:07.801Z, 39.18
2024-01-24T04:50:07.906Z, 40.26
2024-01-24T04:51:07.706Z, 42.07
2024-01-24T04:52:07.709Z, 43.95
2024-01-24T04:53:07.788Z, 42.52
2024-01-24T04:54:07.752Z, 39.70
2024-01-24T04:55:07.797Z, 36.96
2024-01-24T04:56:07.779Z, 34.86
2024-01-24T04:57:07.822Z, 32.94
2024-01-24T04:58:07.805Z, 30.44
2024-01-24T04:59:07.850Z, 29.06
2024-01-24T05:00:07.831Z, 31.14
2024-01-24T05:01:08.030Z, 34.33
2024-01-24T05:02:07.859Z, 36.87
2024-01-24T05:03:07.845Z, 39.62
2024-01-24T05:04:08.048Z, 42.26
2024-01-24T05:05:08.122Z, 45.47
2024-01-24T05:06:10.947Z, 48.90
2024-01-24T05:07:08.017Z, 52.85
2024-01-24T05:08:07.876Z, 56.93
2024-01-24T05:09:07.987Z, 60.78
2024-01-24T05:10:07.951Z, 65.36
2024-01-24T05:11:07.940Z, 52.01
2024-01-24T05:12:07.949Z, 52.64
2024-01-24T05:13:07.966Z, 53.45
2024-01-24T05:14:07.950Z, 54.72
2024-01-24T05:15:07.958Z, 57.35
2024-01-24T05:16:07.980Z, 60.60
2024-01-24T05:17:07.997Z, 67.69
2024-01-24T05:18:08.090Z, 53.92
2024-01-24T05:19:08.123Z, 53.40
2024-01-24T05:20:08.115Z, 54.47
2024-01-24T05:21:08.077Z, 55.80
2024-01-24T05:22:08.167Z, 58.46
2024-01-24T05:23:08.079Z, 63.07
2024-01-24T05:24:08.103Z, 64.45
2024-01-24T05:25:08.086Z, 53.03
2024-01-24T05:26:08.088Z, 53.67
2024-01-24T05:27:08.118Z, 54.37
2024-01-24T05:28:08.115Z, 55.21
2024-01-24T05:29:08.189Z, 51.53
2024-01-24T05:30:16.379Z, 46.93
2024-01-24T05:31:08.181Z, 44.32
2024-01-24T05:32:08.158Z, 42.90
2024-01-24T05:33:08.238Z, 42.00
2024-01-24T05:34:08.274Z, 41.42
2024-01-24T05:35:08.278Z, 41.02
2024-01-24T05:36:08.332Z, 40.63
2024-01-24T05:37:08.266Z, 40.25
2024-01-24T05:38:08.328Z, 39.94
2024-01-24T05:39:08.890Z, 39.70
2024-01-24T05:40:08.298Z, 39.44
2024-01-24T05:41:08.290Z, 39.10
2024-01-24T05:42:08.306Z, 38.60
2024-01-24T05:43:08.441Z, 37.64
2024-01-24T05:44:08.341Z, 36.11
2024-01-24T05:45:08.426Z, 34.39
2024-01-24T05:46:08.519Z, 32.82
2024-01-24T05:47:08.420Z, 35.65
2024-01-24T05:48:08.550Z, 40.15
2024-01-24T05:49:08.622Z, 43.79
2024-01-24T05:50:08.428Z, 44.36
2024-01-24T05:51:08.412Z, 42.66
2024-01-24T05:52:08.530Z, 41.10
2024-01-24T05:53:08.478Z, 39.79
2024-01-24T05:54:08.539Z, 38.53
2024-01-24T05:55:08.504Z, 37.38
2024-01-24T05:56:08.539Z, 36.48
2024-01-24T05:57:08.512Z, 35.62
2024-01-24T05:58:08.543Z, 34.68
2024-01-24T05:59:09.226Z, 33.70
2024-01-24T06:00:08.542Z, 32.80
2024-01-24T06:01:08.612Z, 32.01
2024-01-24T06:02:08.533Z, 31.49
2024-01-24T06:03:08.631Z, 31.27
2024-01-24T06:04:08.683Z, 32.05
2024-01-24T06:05:08.751Z, 37.68
2024-01-24T06:06:08.937Z, 42.69
2024-01-24T06:07:08.802Z, 46.27
2024-01-24T06:08:08.650Z, 45.75
2024-01-24T06:09:08.647Z, 44.30
2024-01-24T06:10:08.653Z, 43.40
2024-01-24T06:11:08.662Z, 42.51
2024-01-24T06:12:08.759Z, 41.40
2024-01-24T06:13:08.743Z, 40.43
2024-01-24T06:14:08.732Z, 39.62
2024-01-24T06:15:08.730Z, 38.71
2024-01-24T06:16:08.736Z, 37.86
2024-01-24T06:17:08.740Z, 37.16
2024-01-24T06:18:08.775Z, 36.46
2024-01-24T06:19:08.942Z, 35.69
2024-01-24T06:20:08.778Z, 34.88
2024-01-24T06:21:08.853Z, 34.11
2024-01-24T06:22:08.835Z, 33.41
2024-01-24T06:23:08.822Z, 35.72
2024-01-24T06:24:08.841Z, 41.77
2024-01-24T06:25:09.042Z, 45.24
2024-01-24T06:26:08.826Z, 44.71
2024-01-24T06:27:08.846Z, 43.36
2024-01-24T06:28:08.862Z, 42.25
2024-01-24T06:29:08.858Z, 41.22
2024-01-24T06:30:19.247Z, 40.15
2024-01-24T06:31:08.972Z, 39.23
2024-01-24T06:32:08.924Z, 38.37
2024-01-24T06:33:09.021Z, 37.69
2024-01-24T06:34:09.030Z, 37.04
2024-01-24T06:35:08.938Z, 36.40
2024-01-24T06:36:08.957Z, 35.72
2024-01-24T06:37:09.036Z, 35.02
2024-01-24T06:38:09.013Z, 34.32
2024-01-24T06:39:09.019Z, 33.68
2024-01-24T06:40:09.017Z, 33.10
2024-01-24T06:41:09.024Z, 33.42
2024-01-24T06:42:09.030Z, 38.88
2024-01-24T06:43:09.055Z, 44.29
2024-01-24T06:44:09.165Z, 44.55
2024-01-24T06:45:09.104Z, 43.09
2024-01-24T06:46:09.181Z, 41.85
2024-01-24T06:47:09.177Z, 41.01
2024-01-24T06:48:09.165Z, 40.01
2024-01-24T06:49:09.216Z, 39.11
2024-01-24T06:50:09.160Z, 38.24
2024-01-24T06:51:09.138Z, 37.52
2024-01-24T06:52:09.153Z, 36.91
2024-01-24T06:53:09.201Z, 36.27
2024-01-24T06:54:09.190Z, 35.64
2024-01-24T06:55:09.297Z, 34.97
2024-01-24T06:56:09.259Z, 34.27
2024-01-24T06:57:09.260Z, 33.61
2024-01-24T06:58:09.318Z, 32.99
2024-01-24T06:59:09.260Z, 33.67
2024-01-24T07:00:09.304Z, 39.32
2024-01-24T07:01:09.378Z, 43.55
2024-01-24T07:02:09.308Z, 46.98
2024-01-24T07:03:09.340Z, 48.12
2024-01-24T07:04:09.519Z, 47.89
2024-01-24T07:05:09.406Z, 47.44
2024-01-24T07:06:09.491Z, 47.12
2024-01-24T07:07:09.421Z, 46.81
2024-01-24T07:08:09.405Z, 46.48
2024-01-24T07:09:09.403Z, 46.17
2024-01-24T07:10:09.414Z, 45.90
2024-01-24T07:11:09.409Z, 45.66
2024-01-24T07:12:09.436Z, 45.47
2024-01-24T07:13:09.513Z, 45.25
2024-01-24T07:14:09.442Z, 45.06
2024-01-24T07:15:09.430Z, 44.86
2024-01-24T07:16:09.500Z, 44.67
2024-01-24T07:17:09.458Z, 44.50
2024-01-24T07:18:09.526Z, 44.30
2024-01-24T07:19:09.761Z, 44.11
2024-01-24T07:20:09.554Z, 43.95
2024-01-24T07:21:09.586Z, 43.82
2024-01-24T07:22:09.635Z, 43.63
2024-01-24T07:23:09.584Z, 43.49
2024-01-24T07:24:09.550Z, 43.33
2024-01-24T07:25:09.568Z, 43.23
2024-01-24T07:26:09.556Z, 43.02
2024-01-24T07:27:09.662Z, 42.88
2024-01-24T07:28:09.690Z, 42.73
2024-01-24T07:29:09.673Z, 42.57
2024-01-24T07:30:09.677Z, 42.44
2024-01-24T07:31:09.703Z, 42.34
2024-01-24T07:32:09.677Z, 42.24
2024-01-24T07:33:09.726Z, 42.14
2024-01-24T07:34:09.851Z, 41.99
2024-01-24T07:35:09.763Z, 41.85
2024-01-24T07:36:09.774Z, 41.73
2024-01-24T07:37:09.774Z, 41.61
2024-01-24T07:38:09.752Z, 41.52
2024-01-24T07:39:09.743Z, 41.36
2024-01-24T07:40:09.824Z, 41.26
2024-01-24T07:41:09.747Z, 41.17
2024-01-24T07:42:09.753Z, 41.01
2024-01-24T07:43:09.881Z, 40.92
2024-01-24T07:44:09.767Z, 40.84
2024-01-24T07:45:09.852Z, 40.71
2024-01-24T07:46:09.891Z, 40.65
2024-01-24T07:47:09.839Z, 40.55
2024-01-24T07:48:09.922Z, 40.49
2024-01-24T07:49:09.932Z, 40.35
2024-01-24T07:50:10.040Z, 40.22
2024-01-24T07:51:09.914Z, 40.12
2024-01-24T07:52:10.247Z, 40.09
2024-01-24T07:53:09.904Z, 40.03
2024-01-24T07:54:09.935Z, 39.95
2024-01-24T07:55:10.095Z, 39.84
2024-01-24T07:56:15.795Z, 39.75
2024-01-24T07:57:09.967Z, 39.65
2024-01-24T07:58:10.055Z, 39.53
2024-01-24T07:59:09.973Z, 39.48
2024-01-24T08:00:09.996Z, 39.45
2024-01-24T08:01:10.162Z, 39.36
2024-01-24T08:02:10.057Z, 39.29
2024-01-24T08:03:10.062Z, 39.23
2024-01-24T08:04:10.200Z, 39.13
2024-01-24T08:05:10.136Z, 39.05
2024-01-24T08:06:10.193Z, 38.97
2024-01-24T08:07:10.112Z, 38.90
2024-01-24T08:08:10.087Z, 38.84
2024-01-24T08:09:11.911Z, 38.77
2024-01-24T08:10:10.156Z, 38.69
2024-01-24T08:11:10.139Z, 38.60
2024-01-24T08:12:10.146Z, 38.58
2024-01-24T08:13:10.207Z, 38.55
2024-01-24T08:14:10.229Z, 38.49
2024-01-24T08:15:10.211Z, 38.42
2024-01-24T08:16:10.260Z, 38.36
2024-01-24T08:17:10.205Z, 38.27
2024-01-24T08:18:10.432Z, 38.20
2024-01-24T08:19:10.422Z, 38.17
2024-01-24T08:20:10.271Z, 38.09
2024-01-24T08:21:10.262Z, 38.04
2024-01-24T08:22:10.327Z, 37.99
2024-01-24T08:23:10.271Z, 37.93
2024-01-24T08:24:10.268Z, 37.88
2024-01-24T08:25:10.290Z, 37.81
2024-01-24T08:26:10.310Z, 37.77
2024-01-24T08:27:10.404Z, 37.75
2024-01-24T08:28:10.562Z, 37.66
2024-01-24T08:29:14.176Z, 37.61
2024-01-24T08:30:10.370Z, 37.58
2024-01-24T08:31:10.410Z, 37.54
2024-01-24T08:32:10.367Z, 37.47
2024-01-24T08:33:10.475Z, 37.37
2024-01-24T08:34:10.451Z, 37.38
2024-01-24T08:35:10.509Z, 37.30
2024-01-24T08:36:10.509Z, 37.23
2024-01-24T08:37:10.497Z, 37.18
2024-01-24T08:38:10.505Z, 37.16
2024-01-24T08:39:10.482Z, 37.10
2024-01-24T08:40:10.513Z, 37.06
2024-01-24T08:41:10.497Z, 37.02
2024-01-24T08:42:10.490Z, 37.00
2024-01-24T08:43:10.548Z, 36.95
2024-01-24T08:44:10.508Z, 36.88
2024-01-24T08:45:10.595Z, 36.85
2024-01-24T08:46:10.614Z, 36.77
2024-01-24T08:47:10.540Z, 36.71
2024-01-24T08:48:10.705Z, 36.67
2024-01-24T08:49:10.652Z, 36.67
2024-01-24T08:50:10.783Z, 36.64
2024-01-24T08:51:10.624Z, 36.63
2024-01-24T08:52:10.716Z, 36.63
2024-01-24T08:53:10.652Z, 36.56
2024-01-24T08:54:10.650Z, 36.49
2024-01-24T08:55:10.719Z, 36.44
2024-01-24T08:56:10.648Z, 36.41
2024-01-24T08:57:10.690Z, 36.37
2024-01-24T08:58:10.736Z, 36.35
2024-01-24T08:59:10.723Z, 36.26
2024-01-24T09:00:10.742Z, 36.25
2024-01-24T09:01:10.840Z, 36.19
2024-01-24T09:02:10.837Z, 36.15
2024-01-24T09:03:10.773Z, 36.09
2024-01-24T09:04:10.818Z, 36.09
2024-01-24T09:05:10.809Z, 36.10
2024-01-24T09:06:10.796Z, 36.01
2024-01-24T09:07:10.844Z, 35.97
2024-01-24T09:08:10.871Z, 35.96
2024-01-24T09:09:10.881Z, 35.94
2024-01-24T09:10:11.057Z, 35.92
2024-01-24T09:11:10.879Z, 35.85
2024-01-24T09:12:10.950Z, 35.84
2024-01-24T09:13:10.916Z, 35.78
2024-01-24T09:14:10.909Z, 35.71
2024-01-24T09:15:10.948Z, 35.73
2024-01-24T09:16:10.981Z, 35.69
2024-01-24T09:17:11.098Z, 35.64
2024-01-24T09:18:10.995Z, 35.60
2024-01-24T09:19:11.142Z, 35.59
2024-01-24T09:20:11.261Z, 35.56
2024-01-24T09:21:11.020Z, 35.50
2024-01-24T09:22:10.990Z, 35.47
2024-01-24T09:23:11.040Z, 35.51
2024-01-24T09:24:11.017Z, 35.45
2024-01-24T09:25:13.032Z, 35.40
2024-01-24T09:26:11.008Z, 35.36
2024-01-24T09:27:11.007Z, 35.33
2024-01-24T09:28:11.035Z, 35.31
2024-01-24T09:29:11.112Z, 35.27
2024-01-24T09:30:11.141Z, 35.26
2024-01-24T09:31:11.133Z, 35.19
2024-01-24T09:32:11.093Z, 35.16
2024-01-24T09:33:11.311Z, 35.15
2024-01-24T09:34:11.318Z, 35.13
2024-01-24T09:35:11.490Z, 35.09
2024-01-24T09:36:11.261Z, 35.07
2024-01-24T09:37:11.157Z, 35.04
2024-01-24T09:38:11.192Z, 34.99
2024-01-24T09:39:11.159Z, 34.96
2024-01-24T09:40:11.511Z, 34.97
2024-01-24T09:41:11.219Z, 34.94
2024-01-24T09:42:11.227Z, 34.90
2024-01-24T09:43:11.280Z, 34.87
2024-01-24T09:44:11.210Z, 34.81
2024-01-24T09:45:11.219Z, 34.81
2024-01-24T09:46:11.305Z, 34.76
2024-01-24T09:47:11.319Z, 34.75
2024-01-24T09:48:11.382Z, 34.69
2024-01-24T09:49:11.578Z, 34.69
2024-01-24T09:50:11.365Z, 34.72
2024-01-24T09:51:11.344Z, 34.68
2024-01-24T09:52:11.342Z, 34.63
2024-01-24T09:53:11.351Z, 34.60
2024-01-24T09:54:11.355Z, 34.57
2024-01-24T09:55:11.409Z, 34.55
2024-01-24T09:56:11.518Z, 34.49
2024-01-24T09:57:11.445Z, 34.46
2024-01-24T09:58:12.741Z, 34.52
2024-01-24T09:59:11.407Z, 34.51
2024-01-24T10:00:11.417Z, 34.47
2024-01-24T10:01:11.527Z, 34.45
2024-01-24T10:02:11.540Z, 34.43
2024-01-24T10:03:11.531Z, 34.37
2024-01-24T10:04:11.654Z, 34.32
2024-01-24T10:05:11.488Z, 34.29
2024-01-24T10:06:11.638Z, 34.31
2024-01-24T10:07:11.711Z, 34.25
2024-01-24T10:08:11.558Z, 34.28
2024-01-24T10:09:11.566Z, 34.25
2024-01-24T10:10:11.657Z, 34.23
2024-01-24T10:11:11.628Z, 34.19
2024-01-24T10:12:11.583Z, 34.13
2024-01-24T10:13:11.675Z, 34.15
2024-01-24T10:14:11.601Z, 34.13
2024-01-24T10:15:11.624Z, 34.10
2024-01-24T10:16:11.807Z, 34.10
2024-01-24T10:17:11.619Z, 34.06
2024-01-24T10:18:11.748Z, 34.02
2024-01-24T10:19:11.767Z, 33.98
2024-01-24T10:20:11.684Z, 33.95
2024-01-24T10:21:11.682Z, 33.93
2024-01-24T10:22:11.876Z, 33.88
2024-01-24T10:23:11.712Z, 33.87
2024-01-24T10:24:11.763Z, 33.92
2024-01-24T10:25:11.843Z, 33.86
2024-01-24T10:26:11.830Z, 33.82
2024-01-24T10:27:11.782Z, 33.80
2024-01-24T10:28:11.822Z, 33.78
2024-01-24T10:29:11.837Z, 33.76
2024-01-24T10:30:11.834Z, 33.71
2024-01-24T10:31:11.800Z, 33.69
2024-01-24T10:32:11.800Z, 33.68
2024-01-24T10:33:11.854Z, 33.65
2024-01-24T10:34:12.376Z, 33.65
2024-01-24T10:35:12.061Z, 33.67
2024-01-24T10:36:18.335Z, 33.65
2024-01-24T10:37:11.939Z, 33.66
2024-01-24T10:38:11.934Z, 33.60
2024-01-24T10:39:11.894Z, 33.60
2024-01-24T10:40:12.007Z, 33.60
2024-01-24T10:41:11.945Z, 33.55
2024-01-24T10:42:14.385Z, 33.51
2024-01-24T10:43:12.000Z, 33.48
2024-01-24T10:44:12.116Z, 33.46
2024-01-24T10:45:11.968Z, 33.42
2024-01-24T10:46:12.112Z, 33.43
2024-01-24T10:47:12.070Z, 33.42
2024-01-24T10:48:12.145Z, 33.38
2024-01-24T10:49:12.172Z, 33.37
2024-01-24T10:50:12.208Z, 33.34
2024-01-24T10:51:12.062Z, 33.30
2024-01-24T10:52:12.144Z, 33.29
2024-01-24T10:53:12.056Z, 33.25
2024-01-24T10:54:12.125Z, 33.24
2024-01-24T10:55:12.161Z, 33.21
2024-01-24T10:56:12.184Z, 33.19
2024-01-24T10:57:12.132Z, 33.15
2024-01-24T10:58:12.231Z, 33.14
2024-01-24T10:59:12.138Z, 33.12
2024-01-24T11:00:12.750Z, 33.10
2024-01-24T11:01:12.238Z, 33.15
2024-01-24T11:02:12.192Z, 34.33
2024-01-24T11:03:12.337Z, 34.83
2024-01-24T11:04:12.257Z, 34.72
2024-01-24T11:05:12.290Z, 33.99
2024-01-24T11:06:12.235Z, 32.79
2024-01-24T11:07:12.299Z, 31.61
2024-01-24T11:08:12.266Z, 30.79
2024-01-24T11:09:12.260Z, 29.85
2024-01-24T11:10:12.317Z, 32.27
2024-01-24T11:11:12.282Z, 35.75
2024-01-24T11:12:12.384Z, 37.92
2024-01-24T11:13:12.331Z, 39.32
2024-01-24T11:14:12.414Z, 41.32
2024-01-24T11:15:12.370Z, 41.40
2024-01-24T11:16:12.556Z, 38.72
2024-01-24T11:17:12.375Z, 35.88
2024-01-24T11:18:12.440Z, 33.41
2024-01-24T11:19:12.489Z, 31.45
2024-01-24T11:20:12.479Z, 28.96
2024-01-24T11:21:12.428Z, 26.52
2024-01-24T11:22:17.150Z, 27.83
2024-01-24T11:23:12.510Z, 32.94
2024-01-24T11:24:12.471Z, 37.26
2024-01-24T11:25:12.571Z, 40.07
2024-01-24T11:26:12.488Z, 42.09
2024-01-24T11:27:12.534Z, 40.92
2024-01-24T11:28:12.555Z, 38.85
2024-01-24T11:29:13.572Z, 37.16
2024-01-24T11:30:12.516Z, 35.54
2024-01-24T11:31:12.661Z, 34.29
2024-01-24T11:32:14.497Z, 33.27
2024-01-24T11:33:12.643Z, 32.12
2024-01-24T11:34:12.773Z, 30.94
2024-01-24T11:35:12.582Z, 29.86
2024-01-24T11:36:12.591Z, 29.27
2024-01-24T11:37:12.625Z, 29.64
2024-01-24T11:38:20.418Z, 34.67
2024-01-24T11:39:12.609Z, 39.28
2024-01-24T11:40:12.737Z, 42.80
2024-01-24T11:41:12.732Z, 43.92
2024-01-24T11:42:12.743Z, 42.58
2024-01-24T11:43:12.749Z, 41.23
2024-01-24T11:44:12.724Z, 39.99
2024-01-24T11:45:12.721Z, 38.75
2024-01-24T11:46:12.965Z, 37.66
2024-01-24T11:47:12.725Z, 36.72
2024-01-24T11:48:12.799Z, 35.95
2024-01-24T11:49:12.808Z, 35.32
2024-01-24T11:50:12.783Z, 34.67
2024-01-24T11:51:12.814Z, 33.90
2024-01-24T11:52:12.807Z, 33.14
2024-01-24T11:53:12.794Z, 32.40
2024-01-24T11:54:12.903Z, 31.80
2024-01-24T11:55:12.901Z, 31.19
2024-01-24T11:56:12.868Z, 31.69
2024-01-24T11:57:12.948Z, 37.56
2024-01-24T11:58:12.941Z, 42.57
2024-01-24T11:59:12.888Z, 44.75
2024-01-24T12:00:12.917Z, 43.95
2024-01-24T12:01:13.653Z, 43.89
2024-01-24T12:02:12.910Z, 44.14
2024-01-24T12:03:12.992Z, 44.09
2024-01-24T12:04:13.007Z, 43.99
2024-01-24T12:05:13.070Z, 43.66
2024-01-24T12:06:12.998Z, 43.36
2024-01-24T12:07:13.049Z, 43.13
2024-01-24T12:08:13.078Z, 42.96
2024-01-24T12:09:13.031Z, 42.79
2024-01-24T12:10:13.134Z, 42.56
2024-01-24T12:11:13.026Z, 42.35
2024-01-24T12:12:13.032Z, 42.19
2024-01-24T12:13:13.129Z, 41.97
2024-01-24T12:14:13.099Z, 41.81
2024-01-24T12:15:13.141Z, 41.65
2024-01-24T12:16:13.246Z, 41.49
2024-01-24T12:17:13.127Z, 41.34
2024-01-24T12:18:13.193Z, 41.18
2024-01-24T12:19:13.247Z, 41.03
2024-01-24T12:20:13.341Z, 40.88
2024-01-24T12:21:13.158Z, 40.74
2024-01-24T12:22:13.232Z, 40.59
2024-01-24T12:23:13.206Z, 40.46
2024-01-24T12:24:13.192Z, 40.35
2024-01-24T12:25:13.331Z, 40.20
2024-01-24T12:26:13.287Z, 40.05
2024-01-24T12:27:13.280Z, 39.92
2024-01-24T12:28:13.812Z, 39.80